P.t. Monto — VMBF — position and weather

sailwx.info

Track history (hours):
 
Tides and Currents Weather Stations Pressure Air Temp Water Temp Dewpoint Dewpoint Depression Visibility Wind Speed Wind Dir Waves Ship Positions

P.t. Monto

Last reported at 2015-Mar-21 07:24 UTC. Time now 2015-Mar-27 13:18 UTC.
Position S 26°44' E 153°13'.

Length 32 m; draft 3.7 m.

Type: Tug. MMSI: 503612000.

Date/timePositionNaut miles runAvg speedWind from/ knotsBaromVisibWave heightAir tempDewpointWater temp
2015-Mar-21 07:24S 26°44' E 153°13'5 3.6
2015-Mar-21 06:04S 26°48' E 153°11'3 4.2
2015-Mar-21 05:26S 26°50' E 153°09'5 5.2
2015-Mar-21 04:33S 26°54' E 153°11'5 5.5
2015-Mar-21 03:33S 26°59' E 153°13'5 5.3
2015-Mar-21 02:33S 27°03' E 153°18'5 5.1
2015-Mar-21 01:33S 27°08' E 153°20'4 3.9
2015-Mar-21 00:34S 27°11' E 153°19'4 3.7
2015-Mar-20 23:33S 27°14' E 153°17'3 3.4
2015-Mar-20 22:33S 27°17' E 153°15'2 2.1
2015-Mar-20 21:34S 27°19' E 153°13'3 3.1
2015-Mar-20 20:33S 27°21' E 153°11'2 2.1
2015-Mar-20 19:34S 27°23' E 153°10'0 0.0
2015-Mar-20 18:33S 27°23' E 153°10'0 0.0
2015-Mar-20 17:33S 27°23' E 153°10'0 0.0
2015-Mar-20 16:34S 27°23' E 153°10'0 0.0
2015-Mar-20 15:33S 27°23' E 153°10'0 0.0
2015-Mar-20 14:33S 27°23' E 153°10'0 0.0
2015-Mar-20 13:33S 27°23' E 153°10'0 0.0
2015-Mar-20 12:33S 27°23' E 153°10'0 0.0
2015-Mar-20 11:34S 27°23' E 153°10'0 0.0
2015-Mar-20 10:33S 27°23' E 153°10'0 0.0
2015-Mar-20 09:30S 27°23' E 153°10'0 0.0
2015-Mar-20 08:33S 27°23' E 153°10'0 0.0
2015-Mar-20 07:33S 27°23' E 153°10'0 0.0
2015-Mar-20 06:33S 27°23' E 153°10'0 0.0
2015-Mar-20 05:33S 27°23' E 153°10'0 0.0
2015-Mar-20 04:33S 27°23' E 153°10'0 0.0
2015-Mar-20 03:33S 27°23' E 153°10'  
2015-Mar-11 22:31S 27°27' E 153°05'  
Track history (hours):
 
Tides and Currents Weather Stations Pressure Air Temp Water Temp Dewpoint Dewpoint Depression Visibility Wind Speed Wind Dir Waves Ship Positions

P.t. Monto

Last reported at 2015-Mar-21 07:24 UTC. Time now 2015-Mar-27 13:18 UTC.
Position S 26°44' E 153°13'.

Length 32 m; draft 3.7 m.

Type: Tug. MMSI: 503612000.

Date/timePositionNaut miles runAvg speedWind from/ knotsBaromVisibWave heightAir tempDewpointWater temp
2015-Mar-21 07:24S 26°44' E 153°13'5 3.6
2015-Mar-21 06:04S 26°48' E 153°11'3 4.2
2015-Mar-21 05:26S 26°50' E 153°09'5 5.2
2015-Mar-21 04:33S 26°54' E 153°11'5 5.5
2015-Mar-21 03:33S 26°59' E 153°13'5 5.3
2015-Mar-21 02:33S 27°03' E 153°18'5 5.1
2015-Mar-21 01:33S 27°08' E 153°20'4 3.9
2015-Mar-21 00:34S 27°11' E 153°19'4 3.7
2015-Mar-20 23:33S 27°14' E 153°17'3 3.4
2015-Mar-20 22:33S 27°17' E 153°15'2 2.1
2015-Mar-20 21:34S 27°19' E 153°13'3 3.1
2015-Mar-20 20:33S 27°21' E 153°11'2 2.1
2015-Mar-20 19:34S 27°23' E 153°10'0 0.0
2015-Mar-20 18:33S 27°23' E 153°10'0 0.0
2015-Mar-20 17:33S 27°23' E 153°10'0 0.0
2015-Mar-20 16:34S 27°23' E 153°10'0 0.0
2015-Mar-20 15:33S 27°23' E 153°10'0 0.0
2015-Mar-20 14:33S 27°23' E 153°10'0 0.0
2015-Mar-20 13:33S 27°23' E 153°10'0 0.0
2015-Mar-20 12:33S 27°23' E 153°10'0 0.0
2015-Mar-20 11:34S 27°23' E 153°10'0 0.0
2015-Mar-20 10:33S 27°23' E 153°10'0 0.0
2015-Mar-20 09:30S 27°23' E 153°10'0 0.0
2015-Mar-20 08:33S 27°23' E 153°10'0 0.0
2015-Mar-20 07:33S 27°23' E 153°10'0 0.0
2015-Mar-20 06:33S 27°23' E 153°10'0 0.0
2015-Mar-20 05:33S 27°23' E 153°10'0 0.0
2015-Mar-20 04:33S 27°23' E 153°10'0 0.0
2015-Mar-20 03:33S 27°23' E 153°10'  
2015-Mar-11 22:31S 27°27' E 153°05'  

Dump ship's entire track history